航空気象通報

ウインドサーファーのための航空気象通報による風予報です。

3/30-4/1の航空気象通報

2017年03月31日 00時30分10秒 | TAF
羽田空港
TAF RJTT 301106Z 3012/3118 35014KT 9999 FEW030
TEMPO 3019/3022 34022G32KT
BECMG 3103/3106 11008KT
BECMG 3115/3118 01012KT
日本時間30日21時-31日12時:350度から14ノットの風
但し、31日04-07時の間:ときどき340度から22ノット、突風32ノット
12-15時:風が変化
15-24時:110度から8ノットの風
1日00-03時:風が変化
03時:010度から12ノットの風


静岡空港
TAF RJNS 301109Z 3012/3118 26010KT 9999 FEW030
BECMG 3022/3100 16006KT
TEMPO 3106/3112 4000 RA BR FEW005 BKN008
BECMG 3112/3115 02006KT
TEMPO 3112/3118 FEW005 BKN008
日本時間30日21時-31日07時:260度から10ノットの風
07-09時:風が変化
09-21時:160度から6ノットの風
21-24時:風が変化
1日00-03時:020度から6ノットの風

但し、31日15-21時の間:ときどき
但し、31日21時-1日03時の間:ときどき

福岡空港
TAF RJFF 301106Z 3012/3118 14003KT 9999 FEW035
BECMG 3020/3022 03007KT
BECMG 3109/3112 14003KT
日本時間30日21時-31日05時:140度から3ノットの風
05-07時:風が変化
07-18時:030度から7ノットの風
18-21時:風が変化
21時-1日03時:140度から3ノットの風


那覇空港
TAF ROAH 301107Z 3012/3118 19010KT 9999 FEW020
BECMG 3109/3112 35022KT
TEMPO 3109/3112 3000 SHRA FEW008 BKN015 FEW020CB
TEMPO 3112/3115 4000 SHRA
日本時間30日21時-31日18時:190度から10ノットの風
18-21時:風が変化
21時-1日03時:350度から22ノットの風

但し、31日18-24時の間:ときどき

石垣空港
TAF ROIG 301110Z 3012/3118 20010KT 9999 FEW020
BECMG 3109/3112 36018KT
TEMPO 3109/3112 36020G30KT 4000 SHRA FEW008 BKN015 FEW020CB
TEMPO 3112/3115 36020G30KT
日本時間30日21時-31日18時:200度から10ノットの風
18-21時:風が変化
21時-1日03時:360度から18ノットの風
但し、31日18-24時の間:ときどき360度から20ノット、突風30ノット

但し、31日21-24時の間:ときどき

マウイのカフルイ空港
PHOG 301120Z 3012/3112 12005KT P6SM FEW060
FM302000 08011KT P6SM FEW045 SCT060
FM302300 06016G22KT P6SM FEW045 SCT060
FM310600 06011KT P6SM FEW045 SCT060
FM311000 08005KT P6SM SCT035 BKN050 AMD LTD TO VIS AND WIND TIL 301600
ハワイ時間30日02-10時:120度から5ノットの風
10-13時:080度から11ノットの風
13-20時:060度から16ノット、突風22ノット
20-24時:060度から11ノットの風

31日00-02時:080度から5ノットの風


サイパン空港
TAF PGSN 301120Z 3012/3112 06015KT P6SM VCSH SCT021 BKN070
マリアナ時間30日22時-31日22時:060度から15ノットの風

コメント

3/29-3/31の航空気象通報

2017年03月29日 21時52分36秒 | TAF
羽田空港
TAF RJTT 291105Z 2912/3018 14008KT 9999 FEW030
BECMG 2915/2917 34006KT
BECMG 2922/3000 10006KT
BECMG 3000/3003 18016KT
BECMG 3009/3012 34014KT
日本時間29日21-24時:140度から16ノットの風
00-02時:風が変化
02-07時:340度から6ノットの風
07-09時:風が変化
09時:100度から6ノットの風
09-12時:風が変化
12-18時:180度から16ノットの風
18-21時:風が変化
21時-31日03時:340度から14ノットの風


静岡空港
TAF RJNS 291106Z 2912/3018 27006KT 9999 FEW030
BECMG 3003/3006 24016KT
TEMPO 3003/3006 24018G28KT
日本時間29日21時-30日12時:270度から6ノットの風
12-15時:風が変化
15時-31日03時:240度から16ノット風
但し、30日12-15時の間:ときどき240度から18ノット、突風28ノット


福岡空港
TAF RJFF 291107Z 2912/3018 15005KT 7000 FEW010 SCT015 BKN020
TEMPO 2915/2918 4000 BR
TEMPO 2918/3000 3000 BR
BECMG 2922/3000 33012KT
TEMPO 3000/3003 4000 BR
BECMG 3012/3015 15003KT
日本時間29日21時-30日07時:150度から5ノットの風
07-09時:風が変化
09-21時:330度から12ノットの風
21-24時:風が変化
31日00-03時:150度から3ノットの風


那覇空港
TAF ROAH 291105Z 2912/3018 17006KT 9999 FEW030
日本時間29日21時-31日03時:170度から6ノットの風


石垣空港
TAF ROIG 291106Z 2912/3018 16006KT 9999 FEW025 SCT035
日本時間29日21時-31日21時:160度から6ノットの風


マウイのカフルイ空港
PHOG 291120Z 2912/3012 VRB05KT P6SM FEW035 SCT050
FM292000 07015G22KT P6SM FEW035 SCT050
FM300500 07009KT P6SM FEW035 SCT050 AMD LTD TO VIS AND WIND TIL 291600
ハワイ時間29日02-10時:風向不定5ノットの風
10-19時:070度から15ノット、突風22ノット
19時-30日02時:070度から9ノットの風


サイパン空港
TAF PGSN 291121Z 2912/3012 05016G23KT P6SM -RA VCSH SCT012 SCT020 BKN050
TEMPO 2912/2916 -SHRA SCT010 BKN027 OVC100
マリアナ時間17日22時-18日22時:050度から16ノット、突風23ノット

コメント

3/28-3/30の航空気象通報

2017年03月29日 00時09分28秒 | TAF
羽田空港
TAF RJTT 281105Z 2812/2918 14010KT 9999 FEW015
BECMG 2812/2814 36012KT
BECMG 2900/2903 08006KT
BECMG 2906/2909 18010KT
BECMG 2915/2918 32006KT
日本時間28日21時:140度から10ノットの風
21-23時:風が変化
23時-29日09時:360度から12ノットの風
09-12時:風が変化
12-15時:080度から6ノットの風
15-18時:風が変化
18-24時:180度から10ノットの風
30日00-03時:風が変化
03時:320度から6ノットの風


静岡空港
TAF RJNS 281107Z 2812/2918 28012KT 9999 FEW030
日本時間28日21時-30日03時:280度から12ノットの風


福岡空港
TAF RJFF 281105Z 2812/2918 15003KT 9999 FEW040
BECMG 2900/2903 16014KT
日本時間28日21時-29日09時:150度から3ノットの風
09-12時:風が変化
12時-30日03時:160度から14ノットの風


那覇空港
TAF ROAH 281105Z 2812/2918 11005KT 9999 FEW035
日本時間28日21時-30日03時:110度から5ノットの風


石垣空港
TAF ROIG 281107Z 2812/2918 15007KT 9999 FEW035
日本時間28日21時-30日03時:150度から7ノットの風


マウイのカフルイ空港
PHOG 281132Z 2812/2912 15006KT P6SM FEW030 BKN050
FM282000 06014G22KT P6SM FEW030 SCT050
FM290400 06010KT P6SM FEW030 SCT050 AMD LTD TO VIS AND WIND TIL 281600
ハワイ時間28日02-10時:150度から6ノットの風

10-18時:060度から14ノット、突風22ノット
18時-29日02時:060度から10ノットの風


サイパン空港
PGSN 281259Z 2813/2912 05011KT P6SM VCSH SCT018 SCT025 BKN050
TEMPO 2813/2817 05018G26KT 5SM SHRA SCT014 BKN025 OVC040
FM282200 06015G25KT P6SM VCSH SCT020 SCT050 BKN080
マリアナ時間28日22時-29日08時:050度から11ノットの風
08-22時:060度から15ノット、突風25ノット
コメント

3/26-3/28の航空気象通報

2017年03月27日 00時07分36秒 | TAF
羽田空港
TAF RJTT 261109Z 2612/2718 35010KT 8000 -SHRA FEW008 BKN015
TEMPO 2612/2616 4000 -SHRA BR FEW005 BKN008
BECMG 2615/2617 35020KT
TEMPO 2616/2622 34027G40KT 3000 SHRA BR FEW005 BKN008
TEMPO 2622/2700 34025G37KT FEW005 BKN008
BECMG 2706/2709 02010KT
日本時間26日21-24時:350度から10ノットの風
27日00-02時:風が変化
02-15時:350度から20ノットの風
但し、01-07時の間:ときどき340度から27ノット、突風40ノット
但し、07-09時の間:ときどき340度から25ノット、突風37ノット
15-18時:風が変化
18時-28日03時:020度から10ノットの風


静岡空港
TAF RJNS 261108Z 2612/2718 36006KT 8000 FEW015 BKN030
TEMPO 2612/2620 4000 SHRA BR FEW005 BKN008
BECMG 2623/2700 26014KT
TEMPO 2700/2706 28024G34KT
日本時間26日21時-27日08時:360度から6ノットの風
08-09時:風が変化
09時-28日03時:260度から14ノットの風
但し、27日09-15時の間:ときどき280度から24ノット、突風34ノット

但し、26日21時-27日05時の間:ときどき

福岡空港
TAF RJFF 261109Z 2612/2718 31010KT 7000 -SHRA FEW010 SCT020 BKN035
TEMPO 2612/2616 3000 TSRA BR FEW010 SCT020 FEW025CB BKN030
TEMPO 2619/2622 4000 -TSRA BR FEW010 SCT020 FEW025CB BKN030
TEMPO 2703/2709 29015G25KT
日本時間26日21時-28日03時:310度から10ノットの風
但し、27日12-18時の間:ときどき290度から15ノット、突風25ノット

但し、26日21時-27日01時の間:ときどき
但し、27日04-07時の間:ときどき

那覇空港
TAF ROAH 261108Z 2612/2718 35018KT 9999 FEW040
日本時間26日21時-28日03時:350度から18ノットの風


石垣空港
TAF ROIG 261109Z 2612/2718 03014KT 9999 FEW035
日本時間26日21時-28日03時:030度から14ノットの風


マウイのカフルイ空港
PHOG 261400Z 2614/2712 05010KT P6SM SCT030
TEMPO 2614/2618 05010G20KT
FM261800 06018G28KT P6SM SCT030
FM270600 06010G18KT P6SM SCT030 AMD LTD TO VIS AND WIND TIL 261600
ハワイ時間26日02-08時:050度から10ノットの風
08-20時:060度から18ノット、突風28ノット
20時-27日02時:060度から10ノット、突風18ノット


サイパン空港
TAF PGSN 261131Z 2612/2712 09011KT P6SM SCT020
FM262300 07015KT P6SM VCSH SCT020 SCT050
マリアナ時間26日22時-27日09時:090度から11ノットの風
09-22時:070度から15ノットの風
コメント

3/20-3/22の航空気象通報

2017年03月20日 23時33分12秒 | TAF
羽田空港
TAF RJTT 201105Z 2012/2118 17012KT 9999 FEW030
BECMG 2100/2103 08014KT
TEMPO 2100/2109 4000 RA BR FEW005 BKN008
BECMG 2106/2109 34026G36KT
TEMPO 2115/2118 34032G46KT
日本時間20日21時-21日09時:170度から12ノットの風
09-12時:風が変化
12-15時:080度から14ノットの風
15-18時:風が変化
18時-21日03時:340度から26ノット、突風36ノット
但し、22日00-03時の間:ときどき340度から32ノット、突風46ノット

但し、21日09-18時の間:ときどき

静岡空港
TAF RJNS 201107Z 2012/2118 33005KT 9999 FEW025
TEMPO 2016/2100 4000 RA BR FEW004 BKN008
BECMG 2021/2023 04006KT
TEMPO 2100/2109 3000 SHRA BR FEW003 BKN005
BECMG 2103/2106 36010KT
BECMG 2106/2109 27016KT
日本時間20日21時-21日06時:330度から5ノットの風
06-08時:風が変化
08-12時:040度から6ノットの風
12-15時:風が変化
15時:360度から10ノットの風
15-18時:風が変化
18時-22日03時:270度から16ノットの風

但し、21日01-09時の間:ときどき
但し、21日09-18時の間:ときどき

福岡空港
TAF RJFF 201116Z 2012/2118 09006KT 7000 -SHRA FEW010 SCT015 BKN020
TEMPO 2012/2019 3000 -SHRA BR
BECMG 2019/2021 34005KT
TEMPO 2019/2023 2000 -SHRA BR FEW006 BKN008 BKN015
BECMG 2022/2100 33015KT
TEMPO 2023/2103 33015G25KT 4000 -SHRA BR
日本時間20日21時-21日04時:090度から6ノットの風
04-06時:風が変化
06-07時:340度から5ノットの風
07-09時:風が演歌
09時-22日03時:330度から15ノットの風
但し、21日08-12時の間:ときどき330度から15ノット、突風25ノット


那覇空港
TAF ROAH 201109Z 2012/2118 22013KT 9999 FEW010 SCT020
BECMG 2016/2018 34017KT
TEMPO 2016/2018 3000 SHRA BKN008 BKN015 FEW020CB
日本時間20日21時-21日01時:220度から13ノットの風
01-03時:風が変化
03時-22日03時:340度から17ノットの風

但し、21日01-03時の間:ときどき

石垣空港
TAF ROIG 201110Z 2012/2118 23006KT 9999 FEW015 SCT025
BECMG 2021/2023 03015KT
日本時間20日21時-21日06時:230度から6ノットの風
06-08時:風が変化
08時-22日03時:030度から15ノットの風


マウイのカフルイ空港
PHOG 201140Z 2012/2112 05008KT P6SM OVC030
FM201600 05011KT P6SM SCT030
FM201900 05014G20KT P6SM SCT030 SCT045
FM202100 05018G26KT P6SM SCT030 SCT045
FM210700 05011KT P6SM SCT030 AMD LTD TO VIS AND WIND
ハワイ時間20日02-06時:050度から8ノットの風

06-09時:050度から11ノットの風
09-11時:050度から14ノット、突風20ノット
11-21時:050度から18ノット、突風26ノット
21時-21日02時:050度から11ノットの風


サイパン空港
TAF PGSN 201128Z 2012/2112 07016KT P6SM VCSH FEW015 BKN025 BKN100
TEMPO 2012/2016 4SM SHRA SCT009 OVC015
FM210100 09016KT P6SM VCSH FEW018 SCT035 BKN120
マリアナ時間20日22時-21日11時:070度から16ノットの風
11-22時:090度から16ノットの風

但し、20日22時-21日02時の間:ときどき
コメント